This is the latest recevied weather packets stored in our database for station/object K8BCO. If no packets are shown the sender has not sent any weather packets the latest 10 day(s).
| Time | Temp. | Humidity | Pressure | Rain* | Wind** | Luminosity | Snow |
|---|---|---|---|---|---|---|---|
| 1777239919 | 7.22° C | 81% | 1019.3 hPa | 0 mm | - | 211 W/m² | - |
| 1777239316 | 7.78° C | 79% | 1019.3 hPa | 0 mm | - | 163 W/m² | - |
| 1777238716 | 7.78° C | 79% | 1019.4 hPa | 0 mm | - | 149 W/m² | - |
| 1777238120 | 8.33° C | 77% | 1019.4 hPa | 0 mm | - | 160 W/m² | - |
| 1777237519 | 8.89° C | 75% | 1019.4 hPa | 0 mm | - | 169 W/m² | - |
| 1777236916 | 10.56° C | 72% | 1019.3 hPa | 0 mm | - | 198 W/m² | - |
| 1777236316 | 12.22° C | 66% | 1019.3 hPa | 0 mm | - | 226 W/m² | - |
| 1777235717 | 13.33° C | 63% | 1019.1 hPa | 0 mm | - | 268 W/m² | - |
| 1777235117 | 14.44° C | 60% | 1019 hPa | 0 mm | - | 331 W/m² | - |
| 1777234517 | 15.56° C | 56% | 1018.7 hPa | 0 mm | - | 812 W/m² | - |
| 1777233918 | 15° C | 58% | 1018.8 hPa | 0 mm | - | 883 W/m² | - |
| 1777233317 | 15° C | 58% | 1018.9 hPa | 0 mm | - | 701 W/m² | - |
| 1777232718 | 15.56° C | 58% | 1018.9 hPa | 0 mm | - | 826 W/m² | - |
| 1777232117 | 15.56° C | 58% | 1018.8 hPa | 0 mm | - | 817 W/m² | - |
| 1777231517 | 15° C | 59% | 1018.8 hPa | 0 mm | - | 782 W/m² | - |
| 1777230918 | 15° C | 57% | 1018.7 hPa | 0 mm | - | 786 W/m² | - |
| 1777230318 | 15° C | 58% | 1018.7 hPa | 0 mm | - | 803 W/m² | - |
| 1777229718 | 15.56° C | 56% | 1018.8 hPa | 0 mm | - | 817 W/m² | - |
| 1777229118 | 15.56° C | 55% | 1018.8 hPa | 0 mm | - | 806 W/m² | - |
| 1777228518 | 15.56° C | 53% | 1018.8 hPa | 0 mm | - | 869 W/m² | - |
| 1777227918 | 15.56° C | 55% | 1018.9 hPa | 0 mm | - | 863 W/m² | - |
| 1777227317 | 15.56° C | 56% | 1018.8 hPa | 0 mm | - | 845 W/m² | - |
| 1777226716 | 15° C | 56% | 1018.8 hPa | 0 mm | - | 963 W/m² | - |
| 1777226117 | 15° C | 58% | 1018.9 hPa | 0 mm | - | 958 W/m² | - |
| 1777225518 | 15.56° C | 57% | 1019 hPa | 0 mm | - | 539 W/m² | - |
* Rain latest hour (hover to see other rain measurements)
** Current wind speed in m/s (hover to see current wind gust speed)